Aviation Digital Data Service (ADDS)

Output produced by METARs form (0015 UTC 26 June 2019)
found at http://aviationweather.gov/metar/data/
 
KRYY 252350Z 30005KT 10SM CLR 29/18 A3007 RMK AO2 SLP903 T02890183 10300 20278 55005 $
KRYY 252320Z 2600/2624 31006KT P6SM FEW040 BKN200 
     FM260200 00000KT P6SM BKN200 
     FM261500 35005KT P6SM FEW035 BKN200 
     FM261700 33006KT P6SM SCT050 BKN200 
     FM262200 04005KT P6SM SCT050 BKN150
       
KPUJ 252355Z AUTO 29003KT 7SM CLR 26/18 A3009 RMK AO2
KCNI 252355Z AUTO 00000KT 10SM CLR 27/19 A3009 RMK AO2
KPDK 252353Z 27004KT 10SM CLR 27/18 A3006 RMK AO2 SLP164 T02720183 10300 20272 55004
KPDK 252320Z 2600/2624 31006KT P6SM FEW040 BKN200 
     FM260200 00000KT P6SM BKN200 
     FM261500 35005KT P6SM FEW035 BKN200 
     FM261700 33006KT P6SM SCT050 BKN200 
     FM262200 04005KT P6SM SCT050 BKN150
       
KRMG 252353Z AUTO 30004KT 10SM CLR 30/18 A3005 RMK AO2 SLP166 T03000178 10328 20300 55002
KATL 252352Z 29006KT 10SM FEW150 SCT200 BKN250 28/18 A3007 RMK AO2 SLP173 T02830183 10306 20283 55002
KATL 252320Z 2600/2706 32006KT P6SM FEW040 BKN200 
     FM260200 34004KT P6SM BKN200 
     FM261500 34006KT P6SM FEW035 BKN200 
     FM261700 33008KT P6SM SCT050 BKN200 
     FM262200 04006KT P6SM SCT050 BKN150
       
KFFC 252353Z AUTO 26003KT 10SM CLR 28/22 A3007 RMK AO2 SLP177 T02830222 10317 20283 55000
KGAD 252356Z AUTO 28003KT 10SM FEW049 28/23 A3007 RMK AO2 SLP181 T02830228 10311 20283 55000
KCHA 252353Z 28005KT 10SM FEW048 SCT200 BKN250 29/19 A3006 RMK AO2 SLP170 T02890189 10317 20289 55003 $
KCHA 252331Z 2600/2624 29004KT P6SM FEW045 BKN250 
     FM260100 00000KT P6SM SCT250 
     FM261800 29005KT P6SM BKN250
       
KDNN 252355Z AUTO 00000KT 10SM CLR 29/18 A3007 RMK AO2
KAHN 252351Z AUTO 27004KT 10SM CLR 28/18 A3005 RMK AO2 SLP169 T02780178 10306 20278 55002
KAHN 252320Z 2600/2624 31007KT P6SM SCT250 
     FM260200 30003KT P6SM BKN200 
     FM261600 34006KT P6SM SCT050
       
KLZU 252356Z 00000KT 10SM CLR 27/21 A3007 RMK AO2 SLP183 T02720206 10294 20272 55004